Flight Track Log - Related Links

Times and Time Zones

All times are in EST time to prevent confusion due to time zone crossing. See the ASQ5958 flight status page for this flight to view local times or setup timezone preferences in your user account.

Time Position Orientation Groundspeed Altitude Reporting Facility
EST Latitude Longitude Course Direction KTS MPH feet Rate Location/Type
Sat 07:51:09 AM 36.1333 -86.6833 68° East 148 170 1,400  Level Nashville TRACON
Sat 07:52:03 AM 36.1500 -86.7333 292° West 172 198 3,600 2,556 Climbing Nashville TRACON
Sat 07:52:57 AM 36.1833 -86.7667 321° Northwest 245 282 6,000 2,474 Climbing Nashville TRACON
Sat 07:53:57 AM 36.2500 -86.7500 11° North 296 341 8,300 2,146 Climbing Nashville TRACON
Sat 07:54:00 AM 36.1978 -86.0818 80° East  Level FlightAware Approximate
Sat 07:55:00 AM 36.2479 -85.9470 64° Northeast  Level FlightAware Approximate
Sat 07:55:14 AM 36.2453 -86.6158 92° East 313 360 10,900  Level Memphis Center
Sat 07:56:00 AM 36.2964 -85.8107 68° East  Level FlightAware Approximate
Sat 07:56:15 AM 36.2350 -86.4944 96° East 343 395 12,400  Level Memphis Center
Sat 07:57:16 AM 36.2242 -86.3647 96° East 368 423 14,100 1,636 Climbing Memphis Center
Sat 07:58:16 AM 36.2128 -86.2306 96° East 384 442 15,700 1,587 Climbing Memphis Center
Sat 07:59:17 AM 36.2025 -86.0931 95° East 395 455 17,300 1,377 Climbing Memphis Center
Sat 08:00:18 AM 36.2503 -85.9617 66° East 411 473 18,500 1,306 Climbing Memphis Center
Sat 08:01:21 AM 36.3072 -85.8325 61° Northeast 422 486 20,000 1,415 Climbing Indianapolis Center
Sat 08:02:21 AM 36.3650 -85.7075 60° Northeast 430 495 21,400 1,500 Climbing Indianapolis Center
Sat 08:03:21 AM 36.4283 -85.5753 59° Northeast 438 504 23,000 1,650 Climbing Indianapolis Center
Sat 08:04:21 AM 36.4911 -85.4425 60° Northeast 442 509 24,700 1,610 Climbing Indianapolis Center
Sat 08:05:24 AM 36.5531 -85.3119 59° Northeast 438 504 26,300 1,623 Climbing Indianapolis Center
Sat 08:06:23 AM 36.6056 -85.1733 65° Northeast 439 505 28,000 1,664 Climbing Indianapolis Center
Sat 08:07:23 AM 36.6492 -85.0339 69° East 433 498 29,600 1,475 Climbing Indianapolis Center
Sat 08:08:25 AM 36.6942 -84.8897 69° East 440 506 31,000 1,366 Climbing Indianapolis Center
Sat 08:09:26 AM 36.7389 -84.7428 69° East 446 513 32,400 984 Climbing Indianapolis Center
Sat 08:10:27 AM 36.7847 -84.5914 69° East 459 528 33,000 683 Climbing Indianapolis Center
Sat 08:11:29 AM 36.8439 -84.4022 69° East 495 570 33,800 976 Climbing Indianapolis Center
Sat 08:12:30 AM 36.8919 -84.2403 70° East 500 575 35,000 595 Climbing Indianapolis Center
Sat 08:13:30 AM 36.9417 -84.0731 70° East 507 583 35,000  Level Indianapolis Center
Sat 08:14:31 AM 36.9947 -83.8936 70° East 535 616 35,000  Level Indianapolis Center
Sat 08:15:33 AM 37.0489 -83.7142 69° East 546 628 35,000  Level Indianapolis Center
Sat 08:16:34 AM 37.1022 -83.5342 70° East 549 632 35,000  Level Indianapolis Center
Sat 08:17:35 AM 37.1556 -83.3531 70° East 549 632 35,000  Level Indianapolis Center
Sat 08:18:35 AM 37.2086 -83.1731 70° East 549 632 35,000  Level Indianapolis Center
Sat 08:19:36 AM 37.2625 -82.9900 70° East 552 635 35,000  Level Indianapolis Center
Sat 08:20:37 AM 37.3142 -82.8069 70° East 551 634 35,000  Level Indianapolis Center
Sat 08:21:37 AM 37.3658 -82.6258 70° East 548 631 35,000  Level Indianapolis Center
Sat 08:22:37 AM 37.4183 -82.4444 70° East 549 632 35,000  Level Indianapolis Center
Sat 08:23:37 AM 37.4703 -82.2600 70° East 554 638 35,000  Level Indianapolis Center
Sat 08:24:41 AM 37.5217 -82.0761 71° East 554 638 35,000  Level Indianapolis Center
Sat 08:25:41 AM 37.5728 -81.8942 70° East 552 635 35,000  Level Indianapolis Center
Sat 08:26:42 AM 37.6211 -81.7103 72° East 551 634 35,000  Level Indianapolis Center
Sat 08:27:43 AM 37.6725 -81.5239 71° East 558 642 35,000  Level Indianapolis Center
Sat 08:28:41 AM 37.7239 -81.3403 70° East 563 648 35,000  Level Indianapolis Center
Sat 08:29:44 AM 37.7792 -81.1186 72° East 565 650 35,000  Level Indianapolis Center
Sat 08:30:45 AM 37.7939 -80.9264 84° East 566 651 35,000  Level Indianapolis Center
Sat 08:31:45 AM 37.8061 -80.7347 85° East 559 643 35,000  Level Indianapolis Center
Sat 08:32:37 AM 37.8172 -80.5814 85° East 561 646 35,000  Level Washington Center
Sat 08:33:38 AM 37.8292 -80.3850 86° East 561 646 35,000  Level Washington Center
Sat 08:34:36 AM 37.8419 -80.1647 86° East 556 640 35,000  Level Washington Center
Sat 08:35:38 AM 37.8556 -79.9708 85° East 556 640 35,000  Level Washington Center
Sat 08:36:36 AM 37.8669 -79.7717 86° East 556 640 35,000  Level Washington Center
Sat 08:37:36 AM 37.8797 -79.5778 85° East 551 634 35,000  Level Washington Center
Sat 08:38:35 AM 37.8881 -79.3833 87° East 551 634 35,000  Level Washington Center
Sat 08:39:36 AM 37.9006 -79.1867 85° East 556 640 35,000  Level Washington Center
Sat 08:40:36 AM 37.9186 -78.9928 83° East 556 640 35,000  Level Washington Center
Sat 08:41:37 AM 37.9428 -78.7936 81° East 556 640 35,000  Level Washington Center
Sat 08:42:37 AM 37.9642 -78.6156 81° East 562 647 35,000  Level Washington Center
Sat 08:43:36 AM 37.9858 -78.4161 82° East 567 652 35,000  Level Washington Center
Sat 08:44:37 AM 38.0133 -78.2142 80° East 572 658 35,000  Level Washington Center
Sat 08:45:37 AM 38.0756 -78.0292 67° East 572 658 35,000  Level Washington Center
Sat 08:46:37 AM 38.1644 -77.8522 57° Northeast 572 658 35,000  Level Washington Center
Sat 08:47:36 AM 38.2511 -77.6753 58° Northeast 577 664 35,000  Level Washington Center
Sat 08:49:39 AM 38.4433 -77.2886 58° Northeast 598 688 35,000  Level New York Center
Sat 08:50:40 AM 38.5294 -77.1142 58° Northeast 594 684 35,000  Level New York Center
Sat 08:51:36 AM 38.6119 -76.9414 59° Northeast 592 681 35,000  Level Washington Center
Sat 08:52:37 AM 38.7011 -76.7675 57° Northeast 592 681 35,000  Level Washington Center
Sat 08:53:35 AM 38.8153 -76.6172 46° Northeast 584 672 35,000 -756 Level Washington Center
Sat 08:54:36 AM 38.9331 -76.4831 42° Northeast 569 655 33,500 -1,820 Descending Washington Center
Sat 08:55:37 AM 39.0486 -76.3506 42° Northeast 558 642 31,300 -2,571 Descending Washington Center
Sat 08:56:35 AM 39.1639 -76.2153 42° Northeast 558 642 28,400 -2,168 Descending Washington Center
Sat 08:57:36 AM 39.2792 -76.0850 41° Northeast 553 636 27,000 -694 Descending Washington Center
Sat 08:58:36 AM 39.3922 -75.9486 43° Northeast 548 631 27,000 -344 Level Washington Center
Sat 08:59:38 AM 39.5072 -75.8147 42° Northeast 548 631 26,300 -1,933 Descending Washington Center
Sat 09:01:36 AM 39.7156 -75.5644 46° Northeast 521 600 21,200 -2,697 Descending Washington Center
Sat 09:02:36 AM 39.8094 -75.4539 42° Northeast 487 560 18,300 -2,479 Descending Washington Center
Sat 09:03:37 AM 39.8944 -75.3508 43° Northeast 446 513 16,200 -2,033 Descending Washington Center
Sat 09:04:37 AM 39.9714 -75.2558 43° Northeast 408 470 14,200 -1,650 Descending Washington Center
Sat 09:05:37 AM 40.0358 -75.1769 43° Northeast 373 429 12,900 -1,375 Descending Washington Center
Sat 09:07:01 AM 40.1333 -75.0550 44° Northeast 318 366 10,900 -1,531 Descending New York Center
Sat 09:08:02 AM 40.1958 -74.9789 43° Northeast 306 352 9,200 -946 Descending New York Center
Sat 09:10:05 AM 40.3322 -74.8586 34° Northeast 281 323 8,000 -367 Descending New York Center
Sat 09:11:18 AM 40.4167 -74.8000 28° Northeast 278 320 8,000  Level New York TRACON
Sat 09:12:12 AM 40.4833 -74.7667 21° North 278 320 8,000  Level New York TRACON
Sat 09:13:12 AM 40.5500 -74.7333 21° North 277 319 8,000 -150 Level New York TRACON
Sat 09:14:12 AM 40.6167 -74.7167 11° North 272 313 7,700 -900 Descending New York TRACON
Sat 09:15:12 AM 40.7000 -74.7000 North 260 299 6,200 -843 Descending New York TRACON
Sat 09:16:13 AM 40.7664 -74.6956 North 261 300 6,000 -341 Descending New York Center
Sat 09:17:15 AM 40.8278 -74.6308 39° Northeast 276 318 5,500 -531 Descending New York Center
Sat 09:18:06 AM 40.8667 -74.5500 58° Northeast 278 320 5,000 -270 Descending New York TRACON
Sat 09:19:06 AM 40.8833 -74.4667 75° East 275 316 5,000  Level New York TRACON
Sat 09:20:06 AM 40.9167 -74.3667 66° East 277 319 5,000 -190 Level New York TRACON
Sat 09:21:12 AM 40.9333 -74.2667 78° East 278 320 4,600 -550 Descending New York TRACON
Sat 09:22:06 AM 40.9000 -74.1833 118° Southeast 266 306 3,900 -789 Descending New York TRACON
Sat 09:23:06 AM 40.8833 -74.0833 102° East 264 304 3,100 -500 Descending New York TRACON
Sat 09:24:06 AM 40.8167 -74.0833 180° South 238 274 2,900 -571 Descending New York TRACON
Sat 09:25:12 AM 40.7667 -74.1167 207° Southwest 193 222 1,900 -1,050 Descending New York TRACON
Sat 09:26:06 AM 40.7333 -74.1333 201° Southwest 143 165 800 -1,222 Descending New York TRACON

Login

Don't have an account? Register now (free) for customized features, flight alerts, and more!